sensor_id;sensor_type;location;lat;lon;timestamp;pressure;altitude;pressure_sealevel;temperature;humidity
40998;BME280;26740;45.944;12.480;2022-07-18T00:01:31;101810.78;;;24.85;56.47
40998;BME280;26740;45.944;12.480;2022-07-18T00:03:58;101810.28;;;24.83;56.59
40998;BME280;26740;45.944;12.480;2022-07-18T00:06:24;101806.56;;;24.83;56.55
40998;BME280;26740;45.944;12.480;2022-07-18T00:08:50;101801.94;;;24.87;55.83
40998;BME280;26740;45.944;12.480;2022-07-18T00:11:16;101803.59;;;24.88;55.52
40998;BME280;26740;45.944;12.480;2022-07-18T00:13:41;101795.56;;;24.90;55.55
40998;BME280;26740;45.944;12.480;2022-07-18T00:16:07;101799.59;;;24.89;55.65
40998;BME280;26740;45.944;12.480;2022-07-18T00:18:33;101792.06;;;24.84;55.49
40998;BME280;26740;45.944;12.480;2022-07-18T00:20:58;101794.53;;;24.77;55.77
40998;BME280;26740;45.944;12.480;2022-07-18T00:23:24;101797.88;;;24.79;55.43
40998;BME280;26740;45.944;12.480;2022-07-18T00:25:50;101799.38;;;24.76;55.86
40998;BME280;26740;45.944;12.480;2022-07-18T00:28:15;101799.66;;;24.66;56.61
40998;BME280;26740;45.944;12.480;2022-07-18T00:30:41;101800.44;;;24.58;56.13
40998;BME280;26740;45.944;12.480;2022-07-18T00:33:07;101798.03;;;24.51;56.54
40998;BME280;26740;45.944;12.480;2022-07-18T00:35:33;101802.25;;;24.54;56.24
40998;BME280;26740;45.944;12.480;2022-07-18T00:38:00;101803.09;;;24.54;56.78
40998;BME280;26740;45.944;12.480;2022-07-18T00:40:27;101806.03;;;24.49;56.46
40998;BME280;26740;45.944;12.480;2022-07-18T00:42:53;101808.66;;;24.46;56.79
40998;BME280;26740;45.944;12.480;2022-07-18T00:45:19;101803.13;;;24.40;57.09
40998;BME280;26740;45.944;12.480;2022-07-18T00:47:44;101798.06;;;24.29;57.76
40998;BME280;26740;45.944;12.480;2022-07-18T00:50:10;101802.69;;;24.25;57.39
40998;BME280;26740;45.944;12.480;2022-07-18T00:52:36;101809.53;;;24.23;57.48
40998;BME280;26740;45.944;12.480;2022-07-18T00:55:04;101803.97;;;24.18;57.71
40998;BME280;26740;45.944;12.480;2022-07-18T00:57:30;101802.81;;;24.19;57.62
40998;BME280;26740;45.944;12.480;2022-07-18T00:59:56;101804.31;;;24.17;58.03
40998;BME280;26740;45.944;12.480;2022-07-18T01:02:40;101805.59;;;24.11;58.22
40998;BME280;26740;45.944;12.480;2022-07-18T01:05:07;101812.88;;;24.03;59.48
40998;BME280;26740;45.944;12.480;2022-07-18T01:07:35;101814.56;;;24.04;58.95
40998;BME280;26740;45.944;12.480;2022-07-18T01:10:02;101813.19;;;24.01;60.17
40998;BME280;26740;45.944;12.480;2022-07-18T01:12:29;101801.63;;;23.98;59.70
40998;BME280;26740;45.944;12.480;2022-07-18T01:14:54;101807.81;;;24.00;58.56
40998;BME280;26740;45.944;12.480;2022-07-18T01:17:22;101802.03;;;24.05;57.81
40998;BME280;26740;45.944;12.480;2022-07-18T01:19:47;101813.25;;;24.10;57.39
40998;BME280;26740;45.944;12.480;2022-07-18T01:22:15;101815.97;;;24.15;57.28
40998;BME280;26740;45.944;12.480;2022-07-18T01:24:42;101814.91;;;24.25;56.87
40998;BME280;26740;45.944;12.480;2022-07-18T01:27:08;101803.66;;;24.20;59.58
40998;BME280;26740;45.944;12.480;2022-07-18T01:29:34;101811.41;;;24.06;59.85
40998;BME280;26740;45.944;12.480;2022-07-18T01:32:06;101816.97;;;24.11;59.74
40998;BME280;26740;45.944;12.480;2022-07-18T01:34:33;101812.75;;;24.08;59.79
40998;BME280;26740;45.944;12.480;2022-07-18T01:36:59;101805.94;;;24.09;59.38
40998;BME280;26740;45.944;12.480;2022-07-18T01:39:26;101808.22;;;24.07;58.73
40998;BME280;26740;45.944;12.480;2022-07-18T01:41:56;101811.72;;;24.04;57.62
40998;BME280;26740;45.944;12.480;2022-07-18T01:44:23;101813.25;;;24.10;57.75
40998;BME280;26740;45.944;12.480;2022-07-18T01:46:49;101810.19;;;24.20;58.83
40998;BME280;26740;45.944;12.480;2022-07-18T01:49:14;101823.16;;;24.13;61.34
40998;BME280;26740;45.944;12.480;2022-07-18T01:51:44;101822.41;;;24.07;59.78
40998;BME280;26740;45.944;12.480;2022-07-18T01:54:10;101823.97;;;24.13;58.80
40998;BME280;26740;45.944;12.480;2022-07-18T01:56:36;101829.00;;;24.16;58.09
40998;BME280;26740;45.944;12.480;2022-07-18T01:59:02;101825.94;;;24.27;56.90
40998;BME280;26740;45.944;12.480;2022-07-18T02:01:28;101827.13;;;24.34;57.31
40998;BME280;26740;45.944;12.480;2022-07-18T02:03:54;101835.22;;;24.41;57.17
40998;BME280;26740;45.944;12.480;2022-07-18T02:06:20;101842.47;;;24.33;59.56
40998;BME280;26740;45.944;12.480;2022-07-18T02:08:45;101827.66;;;24.36;56.92
40998;BME280;26740;45.944;12.480;2022-07-18T02:11:11;101829.41;;;24.46;55.94
40998;BME280;26740;45.944;12.480;2022-07-18T02:13:37;101828.34;;;24.42;57.94
40998;BME280;26740;45.944;12.480;2022-07-18T02:16:03;101824.50;;;24.38;56.76
40998;BME280;26740;45.944;12.480;2022-07-18T02:18:29;101829.78;;;24.31;58.99
40998;BME280;26740;45.944;12.480;2022-07-18T02:20:58;101821.84;;;24.19;56.96
40998;BME280;26740;45.944;12.480;2022-07-18T02:23:24;101820.13;;;24.09;59.54
40998;BME280;26740;45.944;12.480;2022-07-18T02:25:50;101812.28;;;23.92;63.42
40998;BME280;26740;45.944;12.480;2022-07-18T02:28:16;101813.13;;;23.79;63.32
40998;BME280;26740;45.944;12.480;2022-07-18T02:30:41;101807.69;;;23.69;61.24
40998;BME280;26740;45.944;12.480;2022-07-18T02:33:07;101805.38;;;23.71;61.56
40998;BME280;26740;45.944;12.480;2022-07-18T02:35:33;101799.09;;;23.60;64.16
40998;BME280;26740;45.944;12.480;2022-07-18T02:37:59;101801.75;;;23.56;63.15
40998;BME280;26740;45.944;12.480;2022-07-18T02:40:24;101799.44;;;23.31;64.93
40998;BME280;26740;45.944;12.480;2022-07-18T02:42:50;101795.06;;;23.11;66.83
40998;BME280;26740;45.944;12.480;2022-07-18T02:45:16;101798.78;;;22.92;67.48
40998;BME280;26740;45.944;12.480;2022-07-18T02:47:41;101796.91;;;22.74;69.34
40998;BME280;26740;45.944;12.480;2022-07-18T02:50:08;101797.78;;;22.55;72.31
40998;BME280;26740;45.944;12.480;2022-07-18T02:52:34;101800.81;;;22.45;70.91
40998;BME280;26740;45.944;12.480;2022-07-18T02:55:00;101798.25;;;22.29;76.26
40998;BME280;26740;45.944;12.480;2022-07-18T02:57:27;101798.56;;;22.09;75.58
40998;BME280;26740;45.944;12.480;2022-07-18T02:59:53;101792.00;;;21.94;79.81
40998;BME280;26740;45.944;12.480;2022-07-18T03:02:19;101800.56;;;21.89;75.83
40998;BME280;26740;45.944;12.480;2022-07-18T03:04:44;101810.81;;;21.85;76.26
40998;BME280;26740;45.944;12.480;2022-07-18T03:07:10;101797.78;;;21.65;79.55
40998;BME280;26740;45.944;12.480;2022-07-18T03:09:35;101792.25;;;21.60;81.50
40998;BME280;26740;45.944;12.480;2022-07-18T03:12:01;101794.28;;;21.54;79.71
40998;BME280;26740;45.944;12.480;2022-07-18T03:14:27;101803.56;;;21.36;88.27
40998;BME280;26740;45.944;12.480;2022-07-18T03:16:52;101806.97;;;21.33;87.13
40998;BME280;26740;45.944;12.480;2022-07-18T03:19:18;101805.97;;;21.48;82.64
40998;BME280;26740;45.944;12.480;2022-07-18T03:21:44;101800.31;;;21.48;83.78
40998;BME280;26740;45.944;12.480;2022-07-18T03:24:10;101800.91;;;21.45;86.21
40998;BME280;26740;45.944;12.480;2022-07-18T03:26:42;101805.78;;;21.39;91.88
40998;BME280;26740;45.944;12.480;2022-07-18T03:29:08;101805.31;;;21.32;91.83
40998;BME280;26740;45.944;12.480;2022-07-18T03:31:34;101800.91;;;21.20;91.50
40998;BME280;26740;45.944;12.480;2022-07-18T03:34:00;101806.38;;;21.12;92.10
40998;BME280;26740;45.944;12.480;2022-07-18T03:36:26;101809.75;;;21.14;86.94
40998;BME280;26740;45.944;12.480;2022-07-18T03:38:52;101802.19;;;21.09;88.50
40998;BME280;26740;45.944;12.480;2022-07-18T03:41:17;101803.97;;;21.00;89.72
40998;BME280;26740;45.944;12.480;2022-07-18T03:43:43;101808.19;;;21.02;89.69
40998;BME280;26740;45.944;12.480;2022-07-18T03:46:09;101810.78;;;20.99;88.16
40998;BME280;26740;45.944;12.480;2022-07-18T03:48:35;101816.19;;;20.95;93.84
40998;BME280;26740;45.944;12.480;2022-07-18T03:51:02;101816.81;;;20.87;100.00
40998;BME280;26740;45.944;12.480;2022-07-18T03:53:29;101811.78;;;20.84;100.00
40998;BME280;26740;45.944;12.480;2022-07-18T03:55:55;101811.00;;;20.78;100.00
40998;BME280;26740;45.944;12.480;2022-07-18T03:58:21;101821.75;;;20.76;100.00
40998;BME280;26740;45.944;12.480;2022-07-18T04:00:47;101820.63;;;20.77;100.00
40998;BME280;26740;45.944;12.480;2022-07-18T04:03:13;101814.31;;;20.86;100.00
40998;BME280;26740;45.944;12.480;2022-07-18T04:05:39;101808.13;;;20.83;100.00
40998;BME280;26740;45.944;12.480;2022-07-18T04:08:05;101813.47;;;20.85;100.00
40998;BME280;26740;45.944;12.480;2022-07-18T04:10:31;101815.88;;;20.97;100.00
40998;BME280;26740;45.944;12.480;2022-07-18T04:12:57;101807.53;;;21.11;100.00
40998;BME280;26740;45.944;12.480;2022-07-18T04:15:24;101811.75;;;21.13;100.00
40998;BME280;26740;45.944;12.480;2022-07-18T04:17:51;101811.16;;;21.16;100.00
40998;BME280;26740;45.944;12.480;2022-07-18T04:20:19;101804.97;;;21.14;100.00
40998;BME280;26740;45.944;12.480;2022-07-18T04:25:12;101812.50;;;21.19;100.00
40998;BME280;26740;45.944;12.480;2022-07-18T04:27:38;101810.69;;;21.28;100.00
40998;BME280;26740;45.944;12.480;2022-07-18T04:30:04;101802.16;;;21.33;100.00
40998;BME280;26740;45.944;12.480;2022-07-18T04:32:30;101808.91;;;21.37;100.00
40998;BME280;26740;45.944;12.480;2022-07-18T04:34:55;101815.09;;;21.39;100.00
40998;BME280;26740;45.944;12.480;2022-07-18T04:37:21;101827.03;;;21.31;100.00
40998;BME280;26740;45.944;12.480;2022-07-18T04:39:48;101820.81;;;21.34;100.00
40998;BME280;26740;45.944;12.480;2022-07-18T04:42:13;101822.06;;;21.47;100.00
40998;BME280;26740;45.944;12.480;2022-07-18T04:44:39;101823.16;;;21.51;100.00
40998;BME280;26740;45.944;12.480;2022-07-18T04:47:05;101831.31;;;21.53;100.00
40998;BME280;26740;45.944;12.480;2022-07-18T04:49:31;101831.47;;;21.62;100.00
40998;BME280;26740;45.944;12.480;2022-07-18T04:51:56;101839.38;;;21.65;100.00
40998;BME280;26740;45.944;12.480;2022-07-18T04:54:22;101836.94;;;21.77;100.00
40998;BME280;26740;45.944;12.480;2022-07-18T04:56:48;101836.84;;;21.82;100.00
40998;BME280;26740;45.944;12.480;2022-07-18T04:59:15;101837.16;;;22.00;100.00
40998;BME280;26740;45.944;12.480;2022-07-18T05:01:41;101842.53;;;22.20;100.00
40998;BME280;26740;45.944;12.480;2022-07-18T05:04:06;101834.31;;;22.38;100.00
40998;BME280;26740;45.944;12.480;2022-07-18T05:06:32;101836.97;;;22.81;100.00
40998;BME280;26740;45.944;12.480;2022-07-18T05:08:57;101842.59;;;23.41;92.78
40998;BME280;26740;45.944;12.480;2022-07-18T05:11:23;101840.22;;;23.99;93.48
40998;BME280;26740;45.944;12.480;2022-07-18T05:13:49;101836.63;;;24.30;89.75
40998;BME280;26740;45.944;12.480;2022-07-18T05:16:14;101846.19;;;24.56;91.80
40998;BME280;26740;45.944;12.480;2022-07-18T05:18:40;101845.69;;;24.54;90.24
40998;BME280;26740;45.944;12.480;2022-07-18T05:21:06;101849.63;;;24.67;84.07
40998;BME280;26740;45.944;12.480;2022-07-18T05:23:31;101847.56;;;24.59;91.26
40998;BME280;26740;45.944;12.480;2022-07-18T05:25:57;101851.84;;;24.79;92.45
40998;BME280;26740;45.944;12.480;2022-07-18T05:28:22;101858.38;;;24.79;91.12
40998;BME280;26740;45.944;12.480;2022-07-18T05:30:48;101851.53;;;24.81;85.85
40998;BME280;26740;45.944;12.480;2022-07-18T05:33:14;101849.47;;;25.04;81.48
40998;BME280;26740;45.944;12.480;2022-07-18T05:35:39;101854.50;;;25.07;78.06
40998;BME280;26740;45.944;12.480;2022-07-18T05:38:05;101855.44;;;24.93;78.90
40998;BME280;26740;45.944;12.480;2022-07-18T05:40:31;101853.03;;;24.78;79.93
40998;BME280;26740;45.944;12.480;2022-07-18T05:42:57;101857.75;;;24.91;75.43
40998;BME280;26740;45.944;12.480;2022-07-18T05:45:23;101847.94;;;24.97;75.47
40998;BME280;26740;45.944;12.480;2022-07-18T05:47:49;101852.31;;;25.35;86.07
40998;BME280;26740;45.944;12.480;2022-07-18T05:50:15;101845.00;;;25.60;80.75
40998;BME280;26740;45.944;12.480;2022-07-18T05:52:41;101846.50;;;25.49;76.39
40998;BME280;26740;45.944;12.480;2022-07-18T05:55:07;101846.56;;;25.75;72.37
40998;BME280;26740;45.944;12.480;2022-07-18T05:57:34;101848.13;;;26.07;70.49
40998;BME280;26740;45.944;12.480;2022-07-18T06:00:02;101853.31;;;26.49;73.73
40998;BME280;26740;45.944;12.480;2022-07-18T06:02:28;101848.94;;;26.43;70.43
40998;BME280;26740;45.944;12.480;2022-07-18T06:04:53;101857.78;;;26.85;72.48
40998;BME280;26740;45.944;12.480;2022-07-18T06:07:19;101855.09;;;26.80;64.70
40998;BME280;26740;45.944;12.480;2022-07-18T06:09:45;101859.09;;;26.88;63.01
40998;BME280;26740;45.944;12.480;2022-07-18T06:12:10;101861.84;;;26.58;61.39
40998;BME280;26740;45.944;12.480;2022-07-18T06:14:36;101863.34;;;26.29;64.44
40998;BME280;26740;45.944;12.480;2022-07-18T06:17:02;101862.19;;;26.13;62.18
40998;BME280;26740;45.944;12.480;2022-07-18T06:19:27;101862.69;;;26.06;63.34
40998;BME280;26740;45.944;12.480;2022-07-18T06:21:53;101870.06;;;26.16;63.26
40998;BME280;26740;45.944;12.480;2022-07-18T06:24:19;101863.84;;;26.14;63.92
40998;BME280;26740;45.944;12.480;2022-07-18T06:26:44;101870.06;;;26.24;64.35
40998;BME280;26740;45.944;12.480;2022-07-18T06:29:10;101871.06;;;26.20;63.32
40998;BME280;26740;45.944;12.480;2022-07-18T06:31:36;101868.56;;;26.18;61.78
40998;BME280;26740;45.944;12.480;2022-07-18T06:34:02;101871.06;;;26.46;63.28
40998;BME280;26740;45.944;12.480;2022-07-18T06:36:28;101871.72;;;26.60;60.96
40998;BME280;26740;45.944;12.480;2022-07-18T06:38:53;101871.72;;;27.34;62.48
40998;BME280;26740;45.944;12.480;2022-07-18T06:41:19;101875.78;;;28.55;55.42
40998;BME280;26740;45.944;12.480;2022-07-18T06:43:45;101875.38;;;29.61;53.78
40998;BME280;26740;45.944;12.480;2022-07-18T06:46:11;101870.03;;;30.24;51.96
40998;BME280;26740;45.944;12.480;2022-07-18T06:48:37;101871.22;;;29.95;48.43
40998;BME280;26740;45.944;12.480;2022-07-18T06:51:04;101870.88;;;29.60;49.34
40998;BME280;26740;45.944;12.480;2022-07-18T06:53:30;101858.44;;;29.56;51.73
40998;BME280;26740;45.944;12.480;2022-07-18T06:55:56;101859.72;;;30.08;50.28
40998;BME280;26740;45.944;12.480;2022-07-18T06:58:22;101873.63;;;29.81;47.93
40998;BME280;26740;45.944;12.480;2022-07-18T07:00:49;101869.03;;;30.04;48.38
40998;BME280;26740;45.944;12.480;2022-07-18T07:03:15;101873.34;;;29.86;47.18
40998;BME280;26740;45.944;12.480;2022-07-18T07:05:40;101866.38;;;30.12;47.11
40998;BME280;26740;45.944;12.480;2022-07-18T07:08:06;101871.06;;;30.04;47.06
40998;BME280;26740;45.944;12.480;2022-07-18T07:10:31;101868.00;;;29.47;46.98
40998;BME280;26740;45.944;12.480;2022-07-18T07:12:58;101870.75;;;29.93;47.62
40998;BME280;26740;45.944;12.480;2022-07-18T07:15:23;101871.47;;;30.31;48.25
40998;BME280;26740;45.944;12.480;2022-07-18T07:17:50;101869.50;;;30.75;45.53
40998;BME280;26740;45.944;12.480;2022-07-18T07:20:17;101881.31;;;31.18;42.47
40998;BME280;26740;45.944;12.480;2022-07-18T07:22:50;101873.47;;;31.31;42.13
40998;BME280;26740;45.944;12.480;2022-07-18T07:25:17;101876.91;;;31.52;40.56
40998;BME280;26740;45.944;12.480;2022-07-18T07:27:45;101879.84;;;31.08;42.12
40998;BME280;26740;45.944;12.480;2022-07-18T07:30:12;101876.72;;;31.29;41.23
40998;BME280;26740;45.944;12.480;2022-07-18T07:32:41;101871.31;;;31.44;41.75
40998;BME280;26740;45.944;12.480;2022-07-18T07:35:12;101872.47;;;30.51;41.49
40998;BME280;26740;45.944;12.480;2022-07-18T07:37:39;101873.84;;;30.41;45.19
40998;BME280;26740;45.944;12.480;2022-07-18T07:40:06;101874.56;;;30.66;41.46
40998;BME280;26740;45.944;12.480;2022-07-18T07:42:32;101874.31;;;30.71;41.68
40998;BME280;26740;45.944;12.480;2022-07-18T07:44:58;101873.81;;;30.97;40.13
40998;BME280;26740;45.944;12.480;2022-07-18T07:47:24;101860.94;;;30.63;42.05
40998;BME280;26740;45.944;12.480;2022-07-18T07:49:49;101861.78;;;30.35;42.67
40998;BME280;26740;45.944;12.480;2022-07-18T07:52:15;101861.41;;;30.93;43.58
40998;BME280;26740;45.944;12.480;2022-07-18T07:54:43;101867.72;;;31.31;44.44
40998;BME280;26740;45.944;12.480;2022-07-18T07:57:12;101869.75;;;31.62;41.80
40998;BME280;26740;45.944;12.480;2022-07-18T07:59:38;101865.22;;;31.45;43.92
40998;BME280;26740;45.944;12.480;2022-07-18T08:02:04;101853.41;;;32.18;38.75
40998;BME280;26740;45.944;12.480;2022-07-18T08:04:30;101861.69;;;33.24;42.95
40998;BME280;26740;45.944;12.480;2022-07-18T08:06:56;101863.44;;;32.47;37.76
40998;BME280;26740;45.944;12.480;2022-07-18T08:09:22;101855.28;;;31.43;41.48
40998;BME280;26740;45.944;12.480;2022-07-18T08:11:48;101851.78;;;31.02;40.98
40998;BME280;26740;45.944;12.480;2022-07-18T08:14:13;101855.13;;;31.35;39.93
40998;BME280;26740;45.944;12.480;2022-07-18T08:16:39;101854.94;;;31.28;39.60
40998;BME280;26740;45.944;12.480;2022-07-18T08:19:05;101859.09;;;31.47;40.54
40998;BME280;26740;45.944;12.480;2022-07-18T08:21:31;101858.94;;;32.26;40.41
40998;BME280;26740;45.944;12.480;2022-07-18T08:23:57;101860.97;;;31.55;42.42
40998;BME280;26740;45.944;12.480;2022-07-18T08:26:22;101861.03;;;32.29;37.55
40998;BME280;26740;45.944;12.480;2022-07-18T08:28:48;101855.97;;;32.42;37.87
40998;BME280;26740;45.944;12.480;2022-07-18T08:31:14;101854.25;;;32.02;38.29
40998;BME280;26740;45.944;12.480;2022-07-18T08:33:39;101853.41;;;31.82;38.82
40998;BME280;26740;45.944;12.480;2022-07-18T08:36:05;101858.78;;;31.84;37.07
40998;BME280;26740;45.944;12.480;2022-07-18T08:38:32;101851.03;;;32.04;41.86
40998;BME280;26740;45.944;12.480;2022-07-18T08:40:58;101855.44;;;32.37;37.78
40998;BME280;26740;45.944;12.480;2022-07-18T08:43:26;101856.44;;;31.89;39.57
40998;BME280;26740;45.944;12.480;2022-07-18T08:45:55;101853.72;;;32.32;38.11
40998;BME280;26740;45.944;12.480;2022-07-18T08:48:21;101848.31;;;32.69;37.76
40998;BME280;26740;45.944;12.480;2022-07-18T08:50:48;101848.56;;;32.22;36.28
40998;BME280;26740;45.944;12.480;2022-07-18T08:53:15;101846.13;;;32.04;37.84
40998;BME280;26740;45.944;12.480;2022-07-18T08:55:42;101846.84;;;32.01;40.47
40998;BME280;26740;45.944;12.480;2022-07-18T08:58:09;101849.09;;;32.27;38.80
40998;BME280;26740;45.944;12.480;2022-07-18T09:00:40;101846.34;;;32.15;36.58
40998;BME280;26740;45.944;12.480;2022-07-18T09:03:06;101844.31;;;32.55;38.51
40998;BME280;26740;45.944;12.480;2022-07-18T09:05:32;101845.06;;;33.14;35.74
40998;BME280;26740;45.944;12.480;2022-07-18T09:08:12;101846.19;;;32.66;38.06
40998;BME280;26740;45.944;12.480;2022-07-18T09:13:13;101839.78;;;32.96;36.81
40998;BME280;26740;45.944;12.480;2022-07-18T09:15:59;101840.41;;;33.82;37.20
40998;BME280;26740;45.944;12.480;2022-07-18T09:18:44;101840.28;;;32.79;37.25
40998;BME280;26740;45.944;12.480;2022-07-18T09:21:16;101839.91;;;33.03;36.43
40998;BME280;26740;45.944;12.480;2022-07-18T09:23:45;101838.28;;;33.25;36.27
40998;BME280;26740;45.944;12.480;2022-07-18T09:28:59;101836.59;;;33.24;36.35
40998;BME280;26740;45.944;12.480;2022-07-18T09:31:24;101831.59;;;33.21;35.84
40998;BME280;26740;45.944;12.480;2022-07-18T09:33:54;101834.06;;;33.46;37.05
40998;BME280;26740;45.944;12.480;2022-07-18T09:36:20;101826.19;;;33.66;34.86
40998;BME280;26740;45.944;12.480;2022-07-18T09:38:47;101836.56;;;33.74;36.76
40998;BME280;26740;45.944;12.480;2022-07-18T09:41:13;101822.16;;;34.31;35.75
40998;BME280;26740;45.944;12.480;2022-07-18T09:43:39;101826.03;;;34.16;38.16
40998;BME280;26740;45.944;12.480;2022-07-18T09:46:06;101827.34;;;34.52;33.54
40998;BME280;26740;45.944;12.480;2022-07-18T09:48:32;101821.94;;;34.85;33.92
40998;BME280;26740;45.944;12.480;2022-07-18T09:51:04;101819.59;;;34.60;32.95
40998;BME280;26740;45.944;12.480;2022-07-18T09:53:38;101827.72;;;34.51;36.08
40998;BME280;26740;45.944;12.480;2022-07-18T09:56:09;101822.81;;;34.55;36.64
40998;BME280;26740;45.944;12.480;2022-07-18T09:58:41;101828.09;;;34.15;33.99
40998;BME280;26740;45.944;12.480;2022-07-18T10:01:08;101826.41;;;34.45;36.34
40998;BME280;26740;45.944;12.480;2022-07-18T10:03:35;101817.72;;;35.20;37.04
40998;BME280;26740;45.944;12.480;2022-07-18T10:06:03;101817.31;;;34.77;33.76
40998;BME280;26740;45.944;12.480;2022-07-18T10:08:31;101812.13;;;34.59;32.01
40998;BME280;26740;45.944;12.480;2022-07-18T10:11:00;101808.19;;;34.71;35.14
40998;BME280;26740;45.944;12.480;2022-07-18T10:13:28;101809.44;;;34.70;38.19
40998;BME280;26740;45.944;12.480;2022-07-18T10:15:53;101817.91;;;34.59;35.18
40998;BME280;26740;45.944;12.480;2022-07-18T10:18:22;101815.69;;;34.42;37.12
40998;BME280;26740;45.944;12.480;2022-07-18T10:21:14;101808.75;;;35.98;30.72
40998;BME280;26740;45.944;12.480;2022-07-18T10:23:45;101801.88;;;35.51;34.30
40998;BME280;26740;45.944;12.480;2022-07-18T10:31:59;101801.22;;;34.38;33.86
40998;BME280;26740;45.944;12.480;2022-07-18T10:36:35;101800.66;;;34.25;35.95
40998;BME280;26740;45.944;12.480;2022-07-18T11:00:31;101773.16;;;35.73;33.45
40998;BME280;26740;45.944;12.480;2022-07-18T11:03:09;101772.88;;;35.37;33.68
40998;BME280;26740;45.944;12.480;2022-07-18T11:05:48;101775.34;;;36.04;35.49
40998;BME280;26740;45.944;12.480;2022-07-18T11:08:15;101774.53;;;34.48;33.97
40998;BME280;26740;45.944;12.480;2022-07-18T11:16:07;101781.69;;;36.50;29.78
40998;BME280;26740;45.944;12.480;2022-07-18T11:21:28;101770.44;;;35.35;34.28
40998;BME280;26740;45.944;12.480;2022-07-18T11:24:04;101753.47;;;34.82;34.69
40998;BME280;26740;45.944;12.480;2022-07-18T11:26:37;101754.66;;;35.22;36.21
40998;BME280;26740;45.944;12.480;2022-07-18T11:29:09;101753.94;;;35.39;32.70
40998;BME280;26740;45.944;12.480;2022-07-18T11:31:47;101748.41;;;35.82;32.95
40998;BME280;26740;45.944;12.480;2022-07-18T11:34:14;101756.03;;;36.30;29.07
40998;BME280;26740;45.944;12.480;2022-07-18T11:36:42;101753.69;;;37.26;32.27
40998;BME280;26740;45.944;12.480;2022-07-18T11:39:08;101742.50;;;35.61;33.06
40998;BME280;26740;45.944;12.480;2022-07-18T11:41:38;101735.69;;;35.24;34.19
40998;BME280;26740;45.944;12.480;2022-07-18T11:44:18;101739.66;;;34.64;34.42
40998;BME280;26740;45.944;12.480;2022-07-18T11:46:44;101738.09;;;34.29;36.78
40998;BME280;26740;45.944;12.480;2022-07-18T11:49:10;101737.31;;;35.22;34.49
40998;BME280;26740;45.944;12.480;2022-07-18T11:51:41;101737.38;;;35.33;35.07
40998;BME280;26740;45.944;12.480;2022-07-18T11:54:08;101734.91;;;35.35;33.74
40998;BME280;26740;45.944;12.480;2022-07-18T11:56:49;101715.59;;;36.41;34.10
40998;BME280;26740;45.944;12.480;2022-07-18T11:59:15;101715.97;;;36.29;32.55
40998;BME280;26740;45.944;12.480;2022-07-18T12:01:42;101713.94;;;34.86;36.02
40998;BME280;26740;45.944;12.480;2022-07-18T12:04:22;101721.16;;;34.24;35.29
40998;BME280;26740;45.944;12.480;2022-07-18T12:09:39;101709.78;;;35.35;34.95
40998;BME280;26740;45.944;12.480;2022-07-18T12:12:09;101708.13;;;36.47;33.87
40998;BME280;26740;45.944;12.480;2022-07-18T12:14:35;101705.63;;;36.20;34.08
40998;BME280;26740;45.944;12.480;2022-07-18T12:17:03;101707.34;;;36.79;34.80
40998;BME280;26740;45.944;12.480;2022-07-18T12:19:37;101707.34;;;36.90;30.80
40998;BME280;26740;45.944;12.480;2022-07-18T12:22:06;101708.16;;;37.30;31.61
40998;BME280;26740;45.944;12.480;2022-07-18T12:24:59;101708.91;;;37.48;30.73
40998;BME280;26740;45.944;12.480;2022-07-18T12:30:18;101689.44;;;37.56;32.35
40998;BME280;26740;45.944;12.480;2022-07-18T12:32:55;101691.22;;;36.78;30.28
40998;BME280;26740;45.944;12.480;2022-07-18T12:35:27;101680.44;;;36.46;33.70
40998;BME280;26740;45.944;12.480;2022-07-18T12:38:02;101679.66;;;36.74;32.80
40998;BME280;26740;45.944;12.480;2022-07-18T12:40:57;101681.69;;;37.13;31.65
40998;BME280;26740;45.944;12.480;2022-07-18T12:43:31;101687.47;;;36.99;31.31
40998;BME280;26740;45.944;12.480;2022-07-18T12:45:58;101681.69;;;36.45;34.28
40998;BME280;26740;45.944;12.480;2022-07-18T12:48:27;101675.81;;;36.05;35.15
40998;BME280;26740;45.944;12.480;2022-07-18T12:50:58;101680.22;;;35.63;32.10
40998;BME280;26740;45.944;12.480;2022-07-18T12:53:26;101675.69;;;35.69;34.93
40998;BME280;26740;45.944;12.480;2022-07-18T12:55:52;101668.38;;;35.97;37.00
40998;BME280;26740;45.944;12.480;2022-07-18T12:58:19;101670.84;;;35.95;35.09
40998;BME280;26740;45.944;12.480;2022-07-18T13:00:46;101673.44;;;36.40;32.11
40998;BME280;26740;45.944;12.480;2022-07-18T13:03:12;101657.50;;;35.62;34.42
40998;BME280;26740;45.944;12.480;2022-07-18T13:05:39;101658.97;;;36.40;37.86
40998;BME280;26740;45.944;12.480;2022-07-18T13:08:05;101655.16;;;36.11;33.89
40998;BME280;26740;45.944;12.480;2022-07-18T13:10:33;101649.63;;;35.52;33.05
40998;BME280;26740;45.944;12.480;2022-07-18T13:13:02;101651.94;;;34.69;36.78
40998;BME280;26740;45.944;12.480;2022-07-18T13:15:28;101655.41;;;34.89;36.06
40998;BME280;26740;45.944;12.480;2022-07-18T13:17:54;101644.38;;;35.82;37.37
40998;BME280;26740;45.944;12.480;2022-07-18T13:20:20;101643.06;;;35.62;34.40
40998;BME280;26740;45.944;12.480;2022-07-18T13:22:46;101648.75;;;34.78;33.20
40998;BME280;26740;45.944;12.480;2022-07-18T13:25:12;101656.53;;;35.33;33.85
40998;BME280;26740;45.944;12.480;2022-07-18T13:27:38;101651.06;;;36.12;32.43
40998;BME280;26740;45.944;12.480;2022-07-18T13:30:06;101642.00;;;36.28;35.02